createdAt,value
2023-05-20T00:02:03.001Z,1.80
2023-05-20T00:07:04.552Z,1.92
2023-05-20T00:12:05.943Z,1.90
2023-05-20T00:17:06.735Z,1.83
2023-05-20T00:22:07.849Z,1.77
2023-05-20T00:27:08.623Z,2.00
2023-05-20T00:32:09.932Z,1.37
2023-05-20T00:37:10.728Z,1.90
2023-05-20T00:42:18.834Z,1.87
2023-05-20T00:47:25.928Z,1.80
2023-05-20T00:52:30.612Z,1.90
2023-05-20T00:57:31.430Z,2.03
2023-05-20T01:02:32.541Z,1.73
2023-05-20T01:07:33.608Z,1.75
2023-05-20T01:12:39.248Z,1.98
2023-05-20T01:17:45.900Z,2.28
2023-05-20T01:22:48.311Z,2.12
2023-05-20T01:27:50.221Z,2.20
2023-05-20T01:32:56.990Z,2.20
2023-05-20T01:37:59.290Z,2.78
2023-05-20T01:43:02.011Z,2.03
2023-05-20T01:48:03.400Z,2.28
2023-05-20T01:53:05.336Z,1.85
2023-05-20T01:58:06.124Z,2.55
2023-05-20T02:03:07.265Z,2.70
2023-05-20T02:08:10.149Z,2.50
2023-05-20T02:13:12.015Z,2.30
2023-05-20T02:18:17.684Z,2.55
2023-05-20T02:23:18.686Z,2.35
2023-05-20T02:28:19.555Z,2.55
2023-05-20T02:33:20.607Z,2.67
2023-05-20T02:38:21.499Z,2.60
2023-05-20T02:43:22.364Z,2.60
2023-05-20T02:48:23.198Z,2.80
2023-05-20T02:53:24.359Z,2.90
2023-05-20T02:58:25.470Z,2.75
2023-05-20T03:03:26.830Z,2.80
2023-05-20T03:08:27.732Z,2.80
2023-05-20T03:13:28.865Z,2.97
2023-05-20T03:18:32.573Z,2.70
2023-05-20T03:23:34.464Z,2.60
2023-05-20T03:28:35.581Z,3.15
2023-05-20T03:33:36.475Z,2.95
2023-05-20T03:38:37.783Z,3.30
2023-05-20T03:43:38.847Z,3.00
2023-05-20T03:48:40.370Z,3.35
2023-05-20T03:53:41.492Z,2.83
2023-05-20T03:58:43.566Z,3.28
2023-05-20T04:03:44.667Z,3.35
2023-05-20T04:08:45.721Z,3.25
2023-05-20T04:13:46.639Z,3.37
2023-05-20T04:18:48.256Z,3.17
2023-05-20T04:23:49.910Z,3.17
2023-05-20T04:28:51.149Z,3.50
2023-05-20T04:33:53.087Z,2.92
2023-05-20T04:38:57.084Z,3.20
2023-05-20T04:43:59.690Z,3.90
2023-05-20T04:49:00.599Z,3.70
2023-05-20T04:54:01.691Z,3.70
2023-05-20T04:59:03.370Z,4.10
2023-05-20T05:04:04.734Z,3.47
2023-05-20T05:09:05.649Z,3.75
2023-05-20T05:14:06.615Z,3.78
2023-05-20T05:19:10.329Z,4.10
2023-05-20T05:24:13.222Z,4.40
2023-05-20T05:29:14.867Z,5.10
2023-05-20T05:34:15.960Z,3.95
2023-05-20T05:39:16.843Z,4.50
2023-05-20T05:44:18.627Z,3.75
2023-05-20T05:49:20.746Z,4.50
2023-05-20T05:54:22.097Z,4.40
2023-05-20T05:59:23.881Z,4.22
2023-05-20T06:04:25.169Z,4.35
2023-05-20T06:09:28.726Z,4.10
2023-05-20T06:14:31.842Z,3.92
2023-05-20T06:19:33.022Z,3.80
2023-05-20T06:24:34.601Z,3.53
2023-05-20T06:29:36.240Z,4.07
2023-05-20T06:34:37.158Z,4.53
2023-05-20T06:39:38.116Z,4.68
2023-05-20T06:44:39.015Z,5.12
2023-05-20T06:49:49.472Z,4.28
2023-05-20T06:54:50.466Z,4.37
2023-05-20T06:59:52.244Z,4.85
2023-05-20T07:04:54.413Z,4.67
2023-05-20T07:09:56.935Z,5.30
2023-05-20T07:14:57.801Z,4.82
2023-05-20T07:19:59.737Z,5.43
2023-05-20T07:25:01.580Z,5.10
2023-05-20T07:30:03.545Z,4.93
2023-05-20T07:35:08.505Z,4.57
2023-05-20T07:40:10.143Z,5.20
2023-05-20T07:50:13.406Z,5.07
2023-05-20T07:55:15.989Z,5.05
2023-05-20T08:00:17.373Z,4.60
2023-05-20T08:05:18.210Z,5.00
2023-05-20T08:10:20.316Z,4.77
2023-05-20T08:15:21.730Z,4.72
2023-05-20T08:20:23.165Z,4.90
2023-05-20T08:25:26.879Z,4.93
2023-05-20T08:30:28.297Z,4.35
2023-05-20T08:35:29.403Z,4.62
2023-05-20T08:40:30.877Z,4.90
2023-05-20T08:45:33.589Z,4.87
2023-05-20T08:50:38.457Z,5.32
2023-05-20T08:55:45.976Z,5.05
2023-05-20T09:00:46.830Z,5.15
2023-05-20T09:05:48.024Z,5.18
2023-05-20T09:10:51.881Z,4.75
2023-05-20T09:15:52.963Z,5.20
2023-05-20T09:20:54.380Z,5.55
2023-05-20T09:25:55.306Z,4.55
2023-05-20T09:30:59.274Z,5.18
2023-05-20T09:36:04.289Z,4.93
2023-05-20T09:41:07.849Z,5.90
2023-05-20T09:46:10.100Z,5.70
2023-05-20T09:51:12.641Z,5.97
2023-05-20T09:56:14.452Z,6.18
2023-05-20T10:01:15.468Z,5.57
2023-05-20T10:07:06.235Z,5.18
2023-05-20T10:12:45.355Z,6.55
2023-05-20T10:20:32.223Z,5.95
2023-05-20T10:25:33.672Z,5.60
2023-05-20T10:30:35.434Z,6.62
2023-05-20T10:35:47.457Z,6.35
2023-05-20T10:40:48.310Z,6.32
2023-05-20T10:45:54.970Z,6.87
2023-05-20T10:50:59.014Z,6.90
2023-05-20T10:55:59.892Z,7.30
2023-05-20T11:01:02.592Z,7.57
2023-05-20T11:06:16.054Z,6.82
2023-05-20T11:11:18.508Z,6.62
2023-05-20T11:16:22.446Z,6.97
2023-05-20T11:21:23.306Z,6.90
2023-05-20T11:26:24.127Z,6.65
2023-05-20T11:31:25.556Z,7.12
2023-05-20T11:36:28.418Z,7.72
2023-05-20T11:46:30.530Z,7.32
2023-05-20T11:51:31.488Z,7.15
2023-05-20T11:56:36.700Z,7.28
2023-05-20T12:01:42.598Z,7.57
2023-05-20T12:06:43.520Z,8.02
2023-05-20T12:11:44.881Z,7.28
2023-05-20T12:16:45.712Z,7.57
2023-05-20T12:21:46.589Z,7.60
2023-05-20T12:26:47.502Z,7.25
2023-05-20T12:31:48.489Z,7.53
2023-05-20T12:36:49.323Z,6.93
2023-05-20T12:41:50.444Z,7.00
2023-05-20T12:46:54.265Z,7.32
2023-05-20T12:51:55.158Z,7.43
2023-05-20T12:56:56.446Z,6.80
2023-05-20T13:01:57.602Z,7.30
2023-05-20T13:06:58.857Z,6.95
2023-05-20T13:12:02.929Z,6.85
2023-05-20T13:17:04.347Z,6.90
2023-05-20T13:22:06.130Z,6.95
2023-05-20T13:27:07.536Z,7.50
2023-05-20T13:32:08.453Z,7.18
2023-05-20T13:37:09.302Z,7.00
2023-05-20T13:42:10.270Z,7.55
2023-05-20T13:47:11.109Z,7.18
2023-05-20T13:52:12.005Z,7.15
2023-05-20T13:57:12.848Z,7.90
2023-05-20T14:02:14.015Z,7.72
2023-05-20T14:07:15.029Z,8.52
2023-05-20T14:12:16.004Z,7.40
2023-05-20T14:17:17.075Z,8.15
2023-05-20T14:22:19.214Z,8.02
2023-05-20T14:27:20.208Z,8.30
2023-05-20T14:32:21.286Z,7.80
2023-05-20T14:37:22.324Z,8.80
2023-05-20T14:42:23.303Z,7.68
2023-05-20T14:47:25.368Z,7.95
2023-05-20T14:52:26.488Z,8.63
2023-05-20T14:57:27.512Z,8.35
2023-05-20T15:02:28.642Z,7.75
2023-05-20T15:07:29.683Z,7.95
2023-05-20T15:12:30.540Z,8.13
2023-05-20T15:17:31.417Z,7.78
2023-05-20T15:22:32.510Z,8.13
2023-05-20T15:27:33.351Z,8.55
2023-05-20T15:32:34.689Z,7.93
2023-05-20T15:37:35.714Z,8.00
2023-05-20T15:42:36.586Z,8.00
2023-05-20T15:47:40.421Z,7.95
2023-05-20T15:52:41.826Z,7.87
2023-05-20T15:57:42.682Z,7.93
2023-05-20T16:02:43.907Z,8.65
2023-05-20T16:07:46.075Z,8.00
2023-05-20T16:12:47.309Z,7.50
2023-05-20T16:17:48.181Z,8.55
2023-05-20T16:22:49.458Z,8.43
2023-05-20T16:27:50.527Z,7.82
2023-05-20T16:32:51.643Z,8.13
2023-05-20T16:37:52.498Z,8.05
2023-05-20T16:42:53.607Z,8.25
2023-05-20T16:47:55.663Z,8.13
2023-05-20T16:52:58.248Z,8.63
2023-05-20T16:57:59.072Z,8.48
2023-05-20T17:03:00.400Z,8.68
2023-05-20T17:08:01.368Z,8.68
2023-05-20T17:13:03.325Z,8.25
2023-05-20T17:18:04.321Z,8.40
2023-05-20T17:23:05.340Z,9.32
2023-05-20T17:28:06.226Z,8.15
2023-05-20T17:33:07.311Z,8.30
2023-05-20T17:38:08.210Z,8.77
2023-05-20T17:43:09.129Z,9.18
2023-05-20T17:48:11.725Z,8.25
2023-05-20T17:58:13.753Z,9.23
2023-05-20T18:03:14.820Z,9.18
2023-05-20T18:08:18.324Z,9.30
2023-05-20T18:13:19.209Z,9.52
2023-05-20T18:18:20.091Z,9.10
2023-05-20T18:23:20.901Z,8.50
2023-05-20T18:28:21.707Z,9.68
2023-05-20T18:33:23.721Z,9.57
2023-05-20T18:38:25.135Z,9.32
2023-05-20T18:43:26.526Z,9.48
2023-05-20T18:48:27.626Z,10.38
2023-05-20T18:53:28.635Z,10.15
2023-05-20T18:58:29.911Z,10.07
2023-05-20T19:03:30.908Z,10.07
2023-05-20T19:08:31.765Z,10.40
2023-05-20T19:13:33.555Z,11.18
2023-05-20T19:18:34.422Z,11.43
2023-05-20T19:23:35.567Z,12.10
2023-05-20T19:28:36.392Z,11.60
2023-05-20T19:33:37.567Z,11.82
2023-05-20T19:38:38.387Z,11.60
2023-05-20T19:43:40.030Z,11.77
2023-05-20T19:48:41.441Z,12.10
2023-05-20T19:53:42.279Z,13.07
2023-05-20T19:58:43.114Z,13.48
2023-05-20T20:03:45.370Z,13.60
2023-05-20T20:08:46.292Z,13.70
2023-05-20T20:13:47.172Z,14.02
2023-05-20T20:18:47.997Z,13.25
2023-05-20T20:23:48.881Z,14.23
2023-05-20T20:28:49.845Z,14.32
2023-05-20T20:33:51.475Z,14.63
2023-05-20T20:38:52.292Z,14.50
2023-05-20T20:43:53.762Z,14.20
2023-05-20T20:48:54.580Z,15.05
2023-05-20T20:53:55.479Z,15.55
2023-05-20T20:58:56.406Z,15.00
2023-05-20T21:03:57.905Z,15.10
2023-05-20T21:09:01.258Z,15.25
2023-05-20T21:14:02.053Z,15.30
2023-05-20T21:19:03.176Z,15.27
2023-05-20T21:24:04.289Z,14.87
2023-05-20T21:29:06.527Z,15.45
2023-05-20T21:34:07.466Z,15.93
2023-05-20T21:39:08.392Z,16.20
2023-05-20T21:44:09.241Z,16.45
2023-05-20T21:49:10.106Z,16.85
2023-05-20T21:54:10.928Z,15.80
2023-05-20T21:59:12.141Z,16.65
2023-05-20T22:04:13.117Z,17.98
2023-05-20T22:09:14.108Z,17.73
2023-05-20T22:14:15.296Z,16.15
2023-05-20T22:19:16.900Z,18.48
2023-05-20T22:24:17.988Z,18.33
2023-05-20T22:29:19.110Z,18.02
2023-05-20T22:34:19.993Z,18.05
2023-05-20T22:39:21.277Z,18.65
2023-05-20T22:44:22.070Z,18.30
2023-05-20T22:49:25.910Z,17.12
2023-05-20T22:54:26.755Z,17.77
2023-05-20T22:59:30.371Z,17.25
2023-05-20T23:04:31.552Z,18.75
2023-05-20T23:09:32.741Z,18.17
2023-05-20T23:14:33.793Z,18.12
2023-05-20T23:19:34.753Z,18.98
2023-05-20T23:24:35.664Z,18.35
2023-05-20T23:29:37.026Z,18.58
2023-05-20T23:34:37.950Z,18.27
2023-05-20T23:39:38.792Z,18.70
2023-05-20T23:44:39.979Z,19.37
2023-05-20T23:49:40.824Z,17.92
2023-05-20T23:54:41.633Z,20.05
2023-05-20T23:59:42.929Z,18.10
